sensor_id;sensor_type;location;lat;lon;timestamp;P1;durP1;ratioP1;P2;durP2;ratioP2
11522;SDS011;40093;43.224;27.910;2022-07-29T00:00:09;6.50;;;5.77;;
11522;SDS011;40093;43.224;27.910;2022-07-29T00:02:36;6.90;;;6.20;;
11522;SDS011;40093;43.224;27.910;2022-07-29T00:05:04;10.23;;;6.83;;
11522;SDS011;40093;43.224;27.910;2022-07-29T00:07:31;9.80;;;6.87;;
11522;SDS011;40093;43.224;27.910;2022-07-29T00:09:58;7.73;;;6.50;;
11522;SDS011;40093;43.224;27.910;2022-07-29T00:12:26;9.33;;;7.67;;
11522;SDS011;40093;43.224;27.910;2022-07-29T00:14:53;6.97;;;6.27;;
11522;SDS011;40093;43.224;27.910;2022-07-29T00:17:21;7.47;;;6.77;;
11522;SDS011;40093;43.224;27.910;2022-07-29T00:19:48;9.30;;;6.40;;
11522;SDS011;40093;43.224;27.910;2022-07-29T00:22:15;11.13;;;7.33;;
11522;SDS011;40093;43.224;27.910;2022-07-29T00:24:42;9.40;;;6.90;;
11522;SDS011;40093;43.224;27.910;2022-07-29T00:27:09;9.57;;;7.40;;
11522;SDS011;40093;43.224;27.910;2022-07-29T00:29:37;7.10;;;6.50;;
11522;SDS011;40093;43.224;27.910;2022-07-29T00:32:05;8.70;;;7.00;;
11522;SDS011;40093;43.224;27.910;2022-07-29T00:34:32;7.57;;;6.60;;
11522;SDS011;40093;43.224;27.910;2022-07-29T00:37:16;9.70;;;6.53;;
11522;SDS011;40093;43.224;27.910;2022-07-29T00:39:43;7.70;;;6.53;;
11522;SDS011;40093;43.224;27.910;2022-07-29T00:42:10;10.13;;;6.70;;
11522;SDS011;40093;43.224;27.910;2022-07-29T00:44:39;9.23;;;8.33;;
11522;SDS011;40093;43.224;27.910;2022-07-29T00:47:06;9.47;;;6.97;;
11522;SDS011;40093;43.224;27.910;2022-07-29T00:49:34;10.97;;;7.77;;
11522;SDS011;40093;43.224;27.910;2022-07-29T00:52:01;10.60;;;7.40;;
11522;SDS011;40093;43.224;27.910;2022-07-29T00:54:29;12.00;;;7.47;;
11522;SDS011;40093;43.224;27.910;2022-07-29T00:56:56;9.67;;;6.63;;
11522;SDS011;40093;43.224;27.910;2022-07-29T00:59:24;9.83;;;6.97;;
11522;SDS011;40093;43.224;27.910;2022-07-29T01:01:53;9.73;;;6.83;;
11522;SDS011;40093;43.224;27.910;2022-07-29T01:04:21;11.53;;;6.90;;
11522;SDS011;40093;43.224;27.910;2022-07-29T01:06:48;12.90;;;7.47;;
11522;SDS011;40093;43.224;27.910;2022-07-29T01:09:15;10.50;;;8.03;;
11522;SDS011;40093;43.224;27.910;2022-07-29T01:11:44;8.40;;;6.70;;
11522;SDS011;40093;43.224;27.910;2022-07-29T01:14:13;10.97;;;7.00;;
11522;SDS011;40093;43.224;27.910;2022-07-29T01:16:42;13.97;;;8.87;;
11522;SDS011;40093;43.224;27.910;2022-07-29T01:19:17;12.23;;;7.63;;
11522;SDS011;40093;43.224;27.910;2022-07-29T01:22:02;11.13;;;7.60;;
11522;SDS011;40093;43.224;27.910;2022-07-29T01:24:48;13.03;;;8.33;;
11522;SDS011;40093;43.224;27.910;2022-07-29T01:27:32;13.50;;;9.03;;
11522;SDS011;40093;43.224;27.910;2022-07-29T01:30:09;13.57;;;9.87;;
11522;SDS011;40093;43.224;27.910;2022-07-29T01:32:37;17.47;;;9.37;;
11522;SDS011;40093;43.224;27.910;2022-07-29T01:35:06;15.10;;;9.13;;
11522;SDS011;40093;43.224;27.910;2022-07-29T01:37:49;17.83;;;9.83;;
11522;SDS011;40093;43.224;27.910;2022-07-29T01:40:23;14.77;;;8.77;;
11522;SDS011;40093;43.224;27.910;2022-07-29T01:42:54;12.90;;;8.90;;
11522;SDS011;40093;43.224;27.910;2022-07-29T01:45:26;16.50;;;9.00;;
11522;SDS011;40093;43.224;27.910;2022-07-29T01:47:59;15.07;;;8.40;;
11522;SDS011;40093;43.224;27.910;2022-07-29T01:50:31;15.17;;;8.30;;
11522;SDS011;40093;43.224;27.910;2022-07-29T01:53:04;13.63;;;7.33;;
11522;SDS011;40093;43.224;27.910;2022-07-29T01:55:34;11.80;;;7.93;;
11522;SDS011;40093;43.224;27.910;2022-07-29T01:58:04;13.40;;;7.93;;
11522;SDS011;40093;43.224;27.910;2022-07-29T02:00:34;12.30;;;7.77;;
11522;SDS011;40093;43.224;27.910;2022-07-29T02:03:04;11.50;;;7.63;;
11522;SDS011;40093;43.224;27.910;2022-07-29T02:05:35;12.43;;;8.93;;
11522;SDS011;40093;43.224;27.910;2022-07-29T02:08:04;15.13;;;9.00;;
11522;SDS011;40093;43.224;27.910;2022-07-29T02:10:33;15.80;;;11.87;;
11522;SDS011;40093;43.224;27.910;2022-07-29T02:13:02;18.27;;;9.10;;
11522;SDS011;40093;43.224;27.910;2022-07-29T02:15:32;12.80;;;9.67;;
11522;SDS011;40093;43.224;27.910;2022-07-29T02:18:04;15.70;;;10.37;;
11522;SDS011;40093;43.224;27.910;2022-07-29T02:20:34;15.80;;;10.13;;
11522;SDS011;40093;43.224;27.910;2022-07-29T02:23:02;11.23;;;9.27;;
11522;SDS011;40093;43.224;27.910;2022-07-29T02:25:29;18.43;;;11.00;;
11522;SDS011;40093;43.224;27.910;2022-07-29T02:27:58;22.83;;;11.27;;
11522;SDS011;40093;43.224;27.910;2022-07-29T02:30:26;21.90;;;11.37;;
11522;SDS011;40093;43.224;27.910;2022-07-29T02:32:55;23.70;;;11.43;;
11522;SDS011;40093;43.224;27.910;2022-07-29T02:35:25;21.60;;;11.63;;
11522;SDS011;40093;43.224;27.910;2022-07-29T02:37:52;22.83;;;10.97;;
11522;SDS011;40093;43.224;27.910;2022-07-29T02:40:38;15.50;;;11.63;;
11522;SDS011;40093;43.224;27.910;2022-07-29T02:43:08;20.37;;;12.03;;
11522;SDS011;40093;43.224;27.910;2022-07-29T02:45:36;26.60;;;14.93;;
11522;SDS011;40093;43.224;27.910;2022-07-29T02:48:05;23.13;;;14.90;;
11522;SDS011;40093;43.224;27.910;2022-07-29T02:50:38;21.57;;;12.97;;
11522;SDS011;40093;43.224;27.910;2022-07-29T02:53:12;22.37;;;12.77;;
11522;SDS011;40093;43.224;27.910;2022-07-29T02:55:43;24.67;;;12.30;;
11522;SDS011;40093;43.224;27.910;2022-07-29T02:58:13;18.93;;;11.90;;
11522;SDS011;40093;43.224;27.910;2022-07-29T03:00:47;18.00;;;11.87;;
11522;SDS011;40093;43.224;27.910;2022-07-29T03:03:17;19.50;;;12.00;;
11522;SDS011;40093;43.224;27.910;2022-07-29T03:05:48;22.77;;;14.37;;
11522;SDS011;40093;43.224;27.910;2022-07-29T03:08:20;20.83;;;13.20;;
11522;SDS011;40093;43.224;27.910;2022-07-29T03:10:49;26.53;;;14.83;;
11522;SDS011;40093;43.224;27.910;2022-07-29T03:13:17;25.70;;;12.40;;
11522;SDS011;40093;43.224;27.910;2022-07-29T03:15:45;26.27;;;14.00;;
11522;SDS011;40093;43.224;27.910;2022-07-29T03:18:14;33.00;;;14.83;;
11522;SDS011;40093;43.224;27.910;2022-07-29T03:20:42;25.33;;;15.67;;
11522;SDS011;40093;43.224;27.910;2022-07-29T03:23:10;25.20;;;18.00;;
11522;SDS011;40093;43.224;27.910;2022-07-29T03:25:37;23.40;;;14.13;;
11522;SDS011;40093;43.224;27.910;2022-07-29T03:28:04;23.70;;;16.77;;
11522;SDS011;40093;43.224;27.910;2022-07-29T03:30:31;30.33;;;15.10;;
11522;SDS011;40093;43.224;27.910;2022-07-29T03:32:58;12.20;;;8.27;;
11522;SDS011;40093;43.224;27.910;2022-07-29T03:35:25;14.63;;;8.47;;
11522;SDS011;40093;43.224;27.910;2022-07-29T03:37:52;6.70;;;5.57;;
11522;SDS011;40093;43.224;27.910;2022-07-29T03:40:21;21.60;;;13.67;;
11522;SDS011;40093;43.224;27.910;2022-07-29T03:42:51;19.03;;;11.97;;
11522;SDS011;40093;43.224;27.910;2022-07-29T03:45:20;21.07;;;12.83;;
11522;SDS011;40093;43.224;27.910;2022-07-29T03:47:49;20.53;;;13.13;;
11522;SDS011;40093;43.224;27.910;2022-07-29T03:50:20;23.13;;;14.37;;
11522;SDS011;40093;43.224;27.910;2022-07-29T03:52:48;30.00;;;18.07;;
11522;SDS011;40093;43.224;27.910;2022-07-29T03:55:16;23.77;;;15.63;;
11522;SDS011;40093;43.224;27.910;2022-07-29T03:57:45;27.67;;;16.70;;
11522;SDS011;40093;43.224;27.910;2022-07-29T04:00:13;25.03;;;14.17;;
11522;SDS011;40093;43.224;27.910;2022-07-29T04:02:42;7.87;;;6.50;;
11522;SDS011;40093;43.224;27.910;2022-07-29T04:05:13;24.47;;;14.97;;
11522;SDS011;40093;43.224;27.910;2022-07-29T04:07:43;10.87;;;8.73;;
11522;SDS011;40093;43.224;27.910;2022-07-29T04:10:10;19.93;;;10.97;;
11522;SDS011;40093;43.224;27.910;2022-07-29T04:12:37;5.37;;;4.67;;
11522;SDS011;40093;43.224;27.910;2022-07-29T04:15:06;8.00;;;5.67;;
11522;SDS011;40093;43.224;27.910;2022-07-29T04:17:34;7.50;;;6.10;;
11522;SDS011;40093;43.224;27.910;2022-07-29T04:20:01;4.70;;;3.70;;
11522;SDS011;40093;43.224;27.910;2022-07-29T04:22:28;5.87;;;5.30;;
11522;SDS011;40093;43.224;27.910;2022-07-29T04:24:55;4.77;;;4.00;;
11522;SDS011;40093;43.224;27.910;2022-07-29T04:27:24;5.93;;;4.97;;
11522;SDS011;40093;43.224;27.910;2022-07-29T04:29:51;4.83;;;3.90;;
11522;SDS011;40093;43.224;27.910;2022-07-29T04:32:20;5.67;;;3.77;;
11522;SDS011;40093;43.224;27.910;2022-07-29T04:34:47;4.40;;;4.00;;
11522;SDS011;40093;43.224;27.910;2022-07-29T04:37:14;9.77;;;5.00;;
11522;SDS011;40093;43.224;27.910;2022-07-29T04:39:41;16.30;;;10.40;;
11522;SDS011;40093;43.224;27.910;2022-07-29T04:42:08;13.17;;;9.57;;
11522;SDS011;40093;43.224;27.910;2022-07-29T04:44:35;17.03;;;9.53;;
11522;SDS011;40093;43.224;27.910;2022-07-29T04:47:02;18.87;;;11.07;;
11522;SDS011;40093;43.224;27.910;2022-07-29T04:49:31;19.17;;;10.97;;
11522;SDS011;40093;43.224;27.910;2022-07-29T04:51:58;11.53;;;7.80;;
11522;SDS011;40093;43.224;27.910;2022-07-29T04:54:25;17.30;;;10.40;;
11522;SDS011;40093;43.224;27.910;2022-07-29T04:56:52;17.10;;;11.50;;
11522;SDS011;40093;43.224;27.910;2022-07-29T04:59:19;22.67;;;10.87;;
11522;SDS011;40093;43.224;27.910;2022-07-29T05:01:46;20.37;;;11.10;;
11522;SDS011;40093;43.224;27.910;2022-07-29T05:04:13;16.80;;;9.33;;
11522;SDS011;40093;43.224;27.910;2022-07-29T05:06:41;14.20;;;8.70;;
11522;SDS011;40093;43.224;27.910;2022-07-29T05:09:08;18.00;;;8.67;;
11522;SDS011;40093;43.224;27.910;2022-07-29T05:11:35;10.77;;;7.17;;
11522;SDS011;40093;43.224;27.910;2022-07-29T05:14:02;11.47;;;7.73;;
11522;SDS011;40093;43.224;27.910;2022-07-29T05:16:28;11.77;;;6.83;;
11522;SDS011;40093;43.224;27.910;2022-07-29T05:18:56;10.77;;;5.90;;
11522;SDS011;40093;43.224;27.910;2022-07-29T05:21:22;12.30;;;6.20;;
11522;SDS011;40093;43.224;27.910;2022-07-29T05:23:51;13.77;;;8.57;;
11522;SDS011;40093;43.224;27.910;2022-07-29T05:26:18;13.10;;;7.03;;
11522;SDS011;40093;43.224;27.910;2022-07-29T05:28:44;9.93;;;6.87;;
11522;SDS011;40093;43.224;27.910;2022-07-29T05:31:11;6.93;;;5.17;;
11522;SDS011;40093;43.224;27.910;2022-07-29T05:33:39;8.60;;;4.60;;
11522;SDS011;40093;43.224;27.910;2022-07-29T05:36:06;12.07;;;6.23;;
11522;SDS011;40093;43.224;27.910;2022-07-29T05:38:34;14.40;;;7.13;;
11522;SDS011;40093;43.224;27.910;2022-07-29T05:41:02;17.60;;;8.20;;
11522;SDS011;40093;43.224;27.910;2022-07-29T05:43:30;14.63;;;7.60;;
11522;SDS011;40093;43.224;27.910;2022-07-29T05:45:57;15.90;;;9.00;;
11522;SDS011;40093;43.224;27.910;2022-07-29T05:48:24;19.97;;;8.70;;
11522;SDS011;40093;43.224;27.910;2022-07-29T05:50:52;12.93;;;8.60;;
11522;SDS011;40093;43.224;27.910;2022-07-29T05:53:19;22.60;;;20.13;;
11522;SDS011;40093;43.224;27.910;2022-07-29T05:55:46;18.17;;;10.90;;
11522;SDS011;40093;43.224;27.910;2022-07-29T05:58:15;26.33;;;12.60;;
11522;SDS011;40093;43.224;27.910;2022-07-29T06:00:42;16.13;;;9.83;;
11522;SDS011;40093;43.224;27.910;2022-07-29T06:03:09;12.63;;;8.43;;
11522;SDS011;40093;43.224;27.910;2022-07-29T06:05:36;14.63;;;8.83;;
11522;SDS011;40093;43.224;27.910;2022-07-29T06:08:03;12.83;;;9.13;;
11522;SDS011;40093;43.224;27.910;2022-07-29T06:10:32;15.73;;;9.90;;
11522;SDS011;40093;43.224;27.910;2022-07-29T06:12:59;15.47;;;8.83;;
11522;SDS011;40093;43.224;27.910;2022-07-29T06:15:27;12.53;;;7.77;;
11522;SDS011;40093;43.224;27.910;2022-07-29T06:17:54;14.40;;;8.07;;
11522;SDS011;40093;43.224;27.910;2022-07-29T06:20:21;14.23;;;7.33;;
11522;SDS011;40093;43.224;27.910;2022-07-29T06:22:48;15.70;;;7.80;;
11522;SDS011;40093;43.224;27.910;2022-07-29T06:25:14;12.20;;;7.27;;
11522;SDS011;40093;43.224;27.910;2022-07-29T06:27:41;14.97;;;6.90;;
11522;SDS011;40093;43.224;27.910;2022-07-29T06:30:08;12.53;;;6.63;;
11522;SDS011;40093;43.224;27.910;2022-07-29T06:32:37;13.43;;;7.30;;
11522;SDS011;40093;43.224;27.910;2022-07-29T06:35:04;17.30;;;7.60;;
11522;SDS011;40093;43.224;27.910;2022-07-29T06:37:32;17.07;;;7.60;;
11522;SDS011;40093;43.224;27.910;2022-07-29T06:40:00;10.87;;;7.40;;
11522;SDS011;40093;43.224;27.910;2022-07-29T06:42:44;12.33;;;7.30;;
11522;SDS011;40093;43.224;27.910;2022-07-29T06:45:11;12.50;;;7.40;;
11522;SDS011;40093;43.224;27.910;2022-07-29T06:47:40;11.77;;;7.63;;
11522;SDS011;40093;43.224;27.910;2022-07-29T06:50:07;8.60;;;7.13;;
11522;SDS011;40093;43.224;27.910;2022-07-29T06:52:36;12.17;;;6.70;;
11522;SDS011;40093;43.224;27.910;2022-07-29T06:55:04;9.70;;;6.17;;
11522;SDS011;40093;43.224;27.910;2022-07-29T06:57:31;7.97;;;6.43;;
11522;SDS011;40093;43.224;27.910;2022-07-29T06:59:58;14.27;;;6.93;;
11522;SDS011;40093;43.224;27.910;2022-07-29T07:02:25;10.53;;;6.00;;
11522;SDS011;40093;43.224;27.910;2022-07-29T07:04:54;11.93;;;6.17;;
11522;SDS011;40093;43.224;27.910;2022-07-29T07:07:21;11.00;;;6.00;;
11522;SDS011;40093;43.224;27.910;2022-07-29T07:09:48;46.63;;;17.03;;
11522;SDS011;40093;43.224;27.910;2022-07-29T07:12:15;11.40;;;5.67;;
11522;SDS011;40093;43.224;27.910;2022-07-29T07:14:42;10.70;;;5.40;;
11522;SDS011;40093;43.224;27.910;2022-07-29T07:17:09;10.67;;;5.83;;
11522;SDS011;40093;43.224;27.910;2022-07-29T07:19:37;15.90;;;6.70;;
11522;SDS011;40093;43.224;27.910;2022-07-29T07:22:05;15.43;;;7.23;;
11522;SDS011;40093;43.224;27.910;2022-07-29T07:24:32;14.07;;;6.67;;
11522;SDS011;40093;43.224;27.910;2022-07-29T07:26:59;16.83;;;6.33;;
11522;SDS011;40093;43.224;27.910;2022-07-29T07:29:27;9.47;;;5.70;;
11522;SDS011;40093;43.224;27.910;2022-07-29T07:31:53;11.30;;;5.93;;
11522;SDS011;40093;43.224;27.910;2022-07-29T07:34:20;13.13;;;5.70;;
11522;SDS011;40093;43.224;27.910;2022-07-29T07:36:47;5.80;;;4.83;;
11522;SDS011;40093;43.224;27.910;2022-07-29T07:39:15;6.37;;;5.20;;
11522;SDS011;40093;43.224;27.910;2022-07-29T07:41:42;8.77;;;4.90;;
11522;SDS011;40093;43.224;27.910;2022-07-29T07:44:09;5.13;;;4.63;;
11522;SDS011;40093;43.224;27.910;2022-07-29T07:46:36;8.37;;;4.60;;
11522;SDS011;40093;43.224;27.910;2022-07-29T07:49:03;6.40;;;4.40;;
11522;SDS011;40093;43.224;27.910;2022-07-29T07:51:30;6.80;;;4.07;;
11522;SDS011;40093;43.224;27.910;2022-07-29T07:53:57;6.10;;;4.40;;
11522;SDS011;40093;43.224;27.910;2022-07-29T07:56:25;5.23;;;4.23;;
11522;SDS011;40093;43.224;27.910;2022-07-29T07:58:52;5.97;;;4.57;;
11522;SDS011;40093;43.224;27.910;2022-07-29T08:01:19;5.17;;;4.13;;
11522;SDS011;40093;43.224;27.910;2022-07-29T08:03:48;6.43;;;4.07;;
11522;SDS011;40093;43.224;27.910;2022-07-29T08:06:15;5.73;;;3.93;;
11522;SDS011;40093;43.224;27.910;2022-07-29T08:08:42;3.97;;;3.60;;
11522;SDS011;40093;43.224;27.910;2022-07-29T08:11:09;5.57;;;3.90;;
11522;SDS011;40093;43.224;27.910;2022-07-29T08:13:37;4.90;;;3.50;;
11522;SDS011;40093;43.224;27.910;2022-07-29T08:16:05;6.53;;;3.80;;
11522;SDS011;40093;43.224;27.910;2022-07-29T08:18:38;6.13;;;3.63;;
11522;SDS011;40093;43.224;27.910;2022-07-29T08:21:06;7.17;;;4.37;;
11522;SDS011;40093;43.224;27.910;2022-07-29T08:23:33;5.00;;;3.60;;
11522;SDS011;40093;43.224;27.910;2022-07-29T08:26:03;6.63;;;4.03;;
11522;SDS011;40093;43.224;27.910;2022-07-29T08:28:30;7.07;;;3.90;;
11522;SDS011;40093;43.224;27.910;2022-07-29T08:30:59;7.63;;;4.03;;
11522;SDS011;40093;43.224;27.910;2022-07-29T08:33:26;5.27;;;4.00;;
11522;SDS011;40093;43.224;27.910;2022-07-29T08:35:53;7.73;;;3.80;;
11522;SDS011;40093;43.224;27.910;2022-07-29T08:38:20;4.17;;;3.77;;
11522;SDS011;40093;43.224;27.910;2022-07-29T08:40:47;5.60;;;4.00;;
11522;SDS011;40093;43.224;27.910;2022-07-29T08:43:14;6.10;;;3.87;;
11522;SDS011;40093;43.224;27.910;2022-07-29T08:45:43;4.43;;;3.90;;
11522;SDS011;40093;43.224;27.910;2022-07-29T08:48:12;7.43;;;3.90;;
11522;SDS011;40093;43.224;27.910;2022-07-29T08:50:41;6.93;;;3.90;;
11522;SDS011;40093;43.224;27.910;2022-07-29T08:53:10;4.17;;;3.77;;
11522;SDS011;40093;43.224;27.910;2022-07-29T08:55:38;5.50;;;3.90;;
11522;SDS011;40093;43.224;27.910;2022-07-29T08:58:06;4.03;;;3.63;;
11522;SDS011;40093;43.224;27.910;2022-07-29T09:00:34;6.03;;;3.50;;
11522;SDS011;40093;43.224;27.910;2022-07-29T09:03:03;5.27;;;4.10;;
11522;SDS011;40093;43.224;27.910;2022-07-29T09:05:32;4.93;;;3.90;;
11522;SDS011;40093;43.224;27.910;2022-07-29T09:08:00;7.07;;;3.63;;
11522;SDS011;40093;43.224;27.910;2022-07-29T09:10:28;5.10;;;3.83;;
11522;SDS011;40093;43.224;27.910;2022-07-29T09:12:55;6.27;;;3.60;;
11522;SDS011;40093;43.224;27.910;2022-07-29T09:15:22;5.43;;;3.63;;
11522;SDS011;40093;43.224;27.910;2022-07-29T09:17:49;4.00;;;3.60;;
11522;SDS011;40093;43.224;27.910;2022-07-29T09:20:17;5.10;;;3.37;;
11522;SDS011;40093;43.224;27.910;2022-07-29T09:22:46;7.53;;;3.87;;
11522;SDS011;40093;43.224;27.910;2022-07-29T09:25:14;6.53;;;4.27;;
11522;SDS011;40093;43.224;27.910;2022-07-29T09:28:04;8.20;;;4.30;;
11522;SDS011;40093;43.224;27.910;2022-07-29T09:30:32;4.63;;;4.00;;
11522;SDS011;40093;43.224;27.910;2022-07-29T09:33:01;5.23;;;4.10;;
11522;SDS011;40093;43.224;27.910;2022-07-29T09:35:30;4.67;;;4.17;;
11522;SDS011;40093;43.224;27.910;2022-07-29T09:37:58;5.00;;;4.03;;
11522;SDS011;40093;43.224;27.910;2022-07-29T09:40:36;5.53;;;4.10;;
11522;SDS011;40093;43.224;27.910;2022-07-29T09:43:09;5.13;;;3.73;;
11522;SDS011;40093;43.224;27.910;2022-07-29T09:45:37;4.83;;;3.90;;
11522;SDS011;40093;43.224;27.910;2022-07-29T09:48:12;6.70;;;4.20;;
11522;SDS011;40093;43.224;27.910;2022-07-29T09:50:41;5.87;;;4.30;;
11522;SDS011;40093;43.224;27.910;2022-07-29T09:53:11;4.67;;;3.93;;
11522;SDS011;40093;43.224;27.910;2022-07-29T09:55:48;4.63;;;4.10;;
11522;SDS011;40093;43.224;27.910;2022-07-29T09:58:16;5.17;;;4.40;;
11522;SDS011;40093;43.224;27.910;2022-07-29T10:00:43;5.00;;;3.73;;
11522;SDS011;40093;43.224;27.910;2022-07-29T10:03:11;5.97;;;3.90;;
11522;SDS011;40093;43.224;27.910;2022-07-29T10:05:39;4.30;;;3.77;;
11522;SDS011;40093;43.224;27.910;2022-07-29T10:08:07;4.10;;;3.70;;
11522;SDS011;40093;43.224;27.910;2022-07-29T10:10:37;6.00;;;3.90;;
11522;SDS011;40093;43.224;27.910;2022-07-29T10:13:07;5.40;;;3.80;;
11522;SDS011;40093;43.224;27.910;2022-07-29T10:15:36;5.93;;;3.63;;
11522;SDS011;40093;43.224;27.910;2022-07-29T10:18:06;4.37;;;3.47;;
11522;SDS011;40093;43.224;27.910;2022-07-29T10:20:34;5.63;;;3.63;;
11522;SDS011;40093;43.224;27.910;2022-07-29T10:23:02;4.23;;;3.70;;
11522;SDS011;40093;43.224;27.910;2022-07-29T10:25:29;8.03;;;3.80;;
11522;SDS011;40093;43.224;27.910;2022-07-29T10:27:58;7.13;;;3.90;;
11522;SDS011;40093;43.224;27.910;2022-07-29T10:30:25;4.00;;;3.50;;
11522;SDS011;40093;43.224;27.910;2022-07-29T10:36:01;6.40;;;3.57;;
11522;SDS011;40093;43.224;27.910;2022-07-29T10:38:42;5.07;;;3.50;;
11522;SDS011;40093;43.224;27.910;2022-07-29T10:44:05;6.17;;;3.50;;
11522;SDS011;40093;43.224;27.910;2022-07-29T10:46:35;3.90;;;3.60;;
11522;SDS011;40093;43.224;27.910;2022-07-29T10:49:04;6.03;;;3.60;;
11522;SDS011;40093;43.224;27.910;2022-07-29T10:54:43;5.90;;;3.33;;
11522;SDS011;40093;43.224;27.910;2022-07-29T11:02:57;3.93;;;3.60;;
11522;SDS011;40093;43.224;27.910;2022-07-29T11:05:25;6.17;;;3.80;;
11522;SDS011;40093;43.224;27.910;2022-07-29T11:10:46;5.20;;;4.03;;
11522;SDS011;40093;43.224;27.910;2022-07-29T11:16:16;4.03;;;3.60;;
11522;SDS011;40093;43.224;27.910;2022-07-29T11:21:48;5.27;;;3.57;;
11522;SDS011;40093;43.224;27.910;2022-07-29T11:24:18;6.10;;;3.80;;
11522;SDS011;40093;43.224;27.910;2022-07-29T11:29:38;5.23;;;3.60;;
11522;SDS011;40093;43.224;27.910;2022-07-29T11:32:11;4.13;;;3.73;;
11522;SDS011;40093;43.224;27.910;2022-07-29T11:34:41;7.27;;;3.70;;
11522;SDS011;40093;43.224;27.910;2022-07-29T11:37:18;5.83;;;3.80;;
11522;SDS011;40093;43.224;27.910;2022-07-29T11:42:50;5.37;;;3.60;;
11522;SDS011;40093;43.224;27.910;2022-07-29T11:45:18;5.43;;;3.63;;
11522;SDS011;40093;43.224;27.910;2022-07-29T11:47:49;4.27;;;3.60;;
11522;SDS011;40093;43.224;27.910;2022-07-29T11:50:26;5.80;;;3.30;;
11522;SDS011;40093;43.224;27.910;2022-07-29T11:52:55;5.40;;;3.80;;
11522;SDS011;40093;43.224;27.910;2022-07-29T11:55:23;8.00;;;3.80;;
11522;SDS011;40093;43.224;27.910;2022-07-29T11:57:51;6.03;;;3.50;;
11522;SDS011;40093;43.224;27.910;2022-07-29T12:00:23;4.20;;;3.67;;
11522;SDS011;40093;43.224;27.910;2022-07-29T12:02:52;6.93;;;3.73;;
11522;SDS011;40093;43.224;27.910;2022-07-29T12:05:20;4.10;;;3.70;;
11522;SDS011;40093;43.224;27.910;2022-07-29T12:07:47;4.73;;;3.73;;
11522;SDS011;40093;43.224;27.910;2022-07-29T12:10:15;6.33;;;3.90;;
11522;SDS011;40093;43.224;27.910;2022-07-29T12:12:42;5.63;;;3.73;;
11522;SDS011;40093;43.224;27.910;2022-07-29T12:15:13;5.03;;;3.87;;
11522;SDS011;40093;43.224;27.910;2022-07-29T12:17:42;4.50;;;3.90;;
11522;SDS011;40093;43.224;27.910;2022-07-29T12:20:12;5.80;;;3.80;;
11522;SDS011;40093;43.224;27.910;2022-07-29T12:22:42;6.43;;;3.47;;
11522;SDS011;40093;43.224;27.910;2022-07-29T12:25:10;4.27;;;3.60;;
11522;SDS011;40093;43.224;27.910;2022-07-29T12:27:40;4.10;;;3.80;;
11522;SDS011;40093;43.224;27.910;2022-07-29T12:30:09;7.97;;;4.00;;
11522;SDS011;40093;43.224;27.910;2022-07-29T12:32:38;8.70;;;3.63;;
11522;SDS011;40093;43.224;27.910;2022-07-29T12:35:06;5.17;;;3.70;;
11522;SDS011;40093;43.224;27.910;2022-07-29T12:37:37;5.77;;;3.90;;
11522;SDS011;40093;43.224;27.910;2022-07-29T12:40:06;6.90;;;3.70;;
11522;SDS011;40093;43.224;27.910;2022-07-29T12:42:34;6.73;;;3.80;;
11522;SDS011;40093;43.224;27.910;2022-07-29T12:45:03;4.80;;;3.80;;
11522;SDS011;40093;43.224;27.910;2022-07-29T12:47:31;4.13;;;3.70;;
11522;SDS011;40093;43.224;27.910;2022-07-29T12:50:08;4.20;;;3.80;;
11522;SDS011;40093;43.224;27.910;2022-07-29T12:52:37;4.77;;;4.17;;
11522;SDS011;40093;43.224;27.910;2022-07-29T12:55:04;8.37;;;3.70;;
11522;SDS011;40093;43.224;27.910;2022-07-29T12:57:32;6.70;;;3.93;;
11522;SDS011;40093;43.224;27.910;2022-07-29T13:00:11;4.53;;;3.50;;
11522;SDS011;40093;43.224;27.910;2022-07-29T13:02:40;9.07;;;3.80;;
11522;SDS011;40093;43.224;27.910;2022-07-29T13:05:09;5.60;;;3.77;;
11522;SDS011;40093;43.224;27.910;2022-07-29T13:07:39;5.47;;;3.90;;
11522;SDS011;40093;43.224;27.910;2022-07-29T13:10:09;5.03;;;3.60;;
11522;SDS011;40093;43.224;27.910;2022-07-29T13:12:39;4.40;;;3.70;;
11522;SDS011;40093;43.224;27.910;2022-07-29T13:15:27;5.27;;;3.80;;
11522;SDS011;40093;43.224;27.910;2022-07-29T13:17:54;4.00;;;3.60;;
11522;SDS011;40093;43.224;27.910;2022-07-29T13:20:23;5.33;;;3.20;;
11522;SDS011;40093;43.224;27.910;2022-07-29T13:22:53;6.00;;;3.57;;
11522;SDS011;40093;43.224;27.910;2022-07-29T13:25:24;6.80;;;3.60;;
11522;SDS011;40093;43.224;27.910;2022-07-29T13:27:51;5.00;;;3.53;;
11522;SDS011;40093;43.224;27.910;2022-07-29T13:30:19;8.60;;;3.80;;
11522;SDS011;40093;43.224;27.910;2022-07-29T13:32:47;7.23;;;4.00;;
11522;SDS011;40093;43.224;27.910;2022-07-29T13:35:15;6.67;;;4.07;;
11522;SDS011;40093;43.224;27.910;2022-07-29T13:37:41;5.80;;;3.90;;
11522;SDS011;40093;43.224;27.910;2022-07-29T13:40:10;4.57;;;3.73;;
11522;SDS011;40093;43.224;27.910;2022-07-29T13:42:38;4.13;;;3.73;;
11522;SDS011;40093;43.224;27.910;2022-07-29T13:45:06;4.53;;;3.80;;
11522;SDS011;40093;43.224;27.910;2022-07-29T13:47:34;4.37;;;3.90;;
11522;SDS011;40093;43.224;27.910;2022-07-29T13:50:02;4.40;;;4.00;;
11522;SDS011;40093;43.224;27.910;2022-07-29T13:52:30;4.23;;;3.83;;
11522;SDS011;40093;43.224;27.910;2022-07-29T13:54:57;4.20;;;3.80;;
11522;SDS011;40093;43.224;27.910;2022-07-29T13:57:25;4.63;;;4.03;;
11522;SDS011;40093;43.224;27.910;2022-07-29T13:59:52;4.60;;;3.80;;
11522;SDS011;40093;43.224;27.910;2022-07-29T14:02:19;7.00;;;4.33;;
11522;SDS011;40093;43.224;27.910;2022-07-29T14:04:47;8.90;;;4.50;;
11522;SDS011;40093;43.224;27.910;2022-07-29T14:07:14;4.63;;;4.17;;
11522;SDS011;40093;43.224;27.910;2022-07-29T14:09:40;5.60;;;4.23;;
11522;SDS011;40093;43.224;27.910;2022-07-29T14:12:08;4.50;;;4.10;;
11522;SDS011;40093;43.224;27.910;2022-07-29T14:14:36;7.03;;;4.20;;
11522;SDS011;40093;43.224;27.910;2022-07-29T14:17:04;8.57;;;4.43;;
11522;SDS011;40093;43.224;27.910;2022-07-29T14:19:32;7.27;;;4.73;;
11522;SDS011;40093;43.224;27.910;2022-07-29T14:22:01;5.93;;;4.60;;
11522;SDS011;40093;43.224;27.910;2022-07-29T14:24:29;6.33;;;4.23;;
11522;SDS011;40093;43.224;27.910;2022-07-29T14:26:56;6.63;;;4.37;;
11522;SDS011;40093;43.224;27.910;2022-07-29T14:29:24;6.00;;;4.50;;
11522;SDS011;40093;43.224;27.910;2022-07-29T14:31:55;5.57;;;4.80;;
11522;SDS011;40093;43.224;27.910;2022-07-29T14:34:22;6.03;;;4.70;;
11522;SDS011;40093;43.224;27.910;2022-07-29T14:36:49;4.80;;;4.40;;
11522;SDS011;40093;43.224;27.910;2022-07-29T14:39:16;5.67;;;5.17;;
11522;SDS011;40093;43.224;27.910;2022-07-29T14:41:43;7.53;;;5.53;;
11522;SDS011;40093;43.224;27.910;2022-07-29T14:44:10;5.60;;;4.90;;
11522;SDS011;40093;43.224;27.910;2022-07-29T14:46:38;5.33;;;4.47;;
11522;SDS011;40093;43.224;27.910;2022-07-29T14:49:07;5.43;;;4.83;;
11522;SDS011;40093;43.224;27.910;2022-07-29T14:51:34;4.87;;;4.33;;
11522;SDS011;40093;43.224;27.910;2022-07-29T14:54:01;6.67;;;4.80;;
11522;SDS011;40093;43.224;27.910;2022-07-29T14:56:27;5.53;;;5.03;;
11522;SDS011;40093;43.224;27.910;2022-07-29T14:58:55;9.73;;;4.63;;
11522;SDS011;40093;43.224;27.910;2022-07-29T15:01:22;6.70;;;4.80;;
11522;SDS011;40093;43.224;27.910;2022-07-29T15:03:49;6.10;;;4.67;;
11522;SDS011;40093;43.224;27.910;2022-07-29T15:06:18;8.03;;;5.30;;